Aviation Digital Data Service (ADDS)

Output produced by METARs form (1936 UTC 25 March 2017)
found at http://www.aviationweather.gov/adds/metars/
 
LSMA 251850Z AUTO 21003KT 190V260 9999NDV NCD 09/06 Q1016 RMK
LSZB 251920Z AUTO 30004KT 260V010 9999 SCT039 10/06 Q1016
TAF LSZB 251425Z 2515/2524 33006KT CAVOK 
     BECMG 2518/2522 BKN010
       
LSMD 251850Z AUTO 12003KT 070V160 9999NDV NCD 11/04 Q1017 RMK
LSME 251850Z AUTO VRB02KT 9999NDV NCD 11/06 Q1016 RMK
LSGG 251920Z 21010KT 9999 OVC036 09/03 Q1018 NOSIG
TAF LSGG 251725Z 2518/2624 21020KT 9999 BKN035 TX15/2615Z TN07/2606Z 
     PROB40 
     TEMPO 2521/2603 SHRA 
     BECMG 2523/2601 VRB05KT 
     BECMG 2609/2611 05007KT
       
LSGC 251920Z AUTO 24005KT 9999 BKN013 06/05 Q1018
TAF LSGC 251425Z 2515/2524 10008KT CAVOK 
     BECMG 2516/2518 26007KT FEW030 BKN050 
     PROB30 
     TEMPO 2517/2524 SHRA
       
LSZA 251920Z 18005KT 130V210 9999 FEW045TCU SCT060 BKN080 16/10 Q1017 NOSIG
TAF AMD LSZA 251804Z 2518/2524 19005KT 9999 FEW060TCU SCT100 
     BECMG 2520/2522 4000 SHRA BKN020 
     PROB40 
     TEMPO 2521/2524 22012G25KT 2000 TSRA SCT020CB
       
LSMM 251850Z AUTO 01010G30KT 290V060 9999NDV NCD 13/05 Q1015 RMK
LSMP 251850Z AUTO VRB03KT 9999NDV FEW048 SCT059 12/06 Q1017 RMK
LSZS 251920Z AUTO VRB02KT 9999 FEW050 SCT070 02/M02 Q1019
TAF AMD LSZS 251708Z 2517/2524 22007KT 9999 SCT070 TX12/2515Z
       
LSGS 251820Z 28008KT 230V330 9999 SCT100 14/06 Q1014
TAF LSGS 251425Z 2515/2524 07020G35KT 9999 SCT100 
     BECMG 2517/2520 26010KT
       
LSZR 251920Z AUTO VRB02KT CAVOK 07/05 Q1017
TAF LSZR 251425Z 2515/2524 02008KT CAVOK 
     BECMG 2520/2524 9999 SCT012
       
LSZH 251920Z VRB04KT CAVOK 12/03 Q1017 NOSIG
TAF LSZH 251725Z 2518/2624 06006KT CAVOK TX12/2615Z TN05/2601Z 
     BECMG 2520/2522 33004KT 7000 FEW012 
     PROB40 2603/2609 BKN012 
     BECMG 2606/2609 BKN020 
     TEMPO 2615/2621 04006KT FEW020 
     BECMG 2621/2624 CAVOK